sensor_id;sensor_type;location;lat;lon;timestamp;P1;durP1;ratioP1;P2;durP2;ratioP2
49310;SDS011;35177;45.900;5.946;2023-11-21T00:01:24;14.05;;;7.22;;
49310;SDS011;35177;45.900;5.946;2023-11-21T00:03:50;22.45;;;10.35;;
49310;SDS011;35177;45.900;5.946;2023-11-21T00:06:15;17.10;;;8.43;;
49310;SDS011;35177;45.900;5.946;2023-11-21T00:08:41;20.13;;;9.60;;
49310;SDS011;35177;45.900;5.946;2023-11-21T00:11:07;17.08;;;8.27;;
49310;SDS011;35177;45.900;5.946;2023-11-21T00:13:32;19.65;;;8.00;;
49310;SDS011;35177;45.900;5.946;2023-11-21T00:15:58;14.77;;;8.30;;
49310;SDS011;35177;45.900;5.946;2023-11-21T00:18:23;15.63;;;8.68;;
49310;SDS011;35177;45.900;5.946;2023-11-21T00:20:49;14.38;;;7.97;;
49310;SDS011;35177;45.900;5.946;2023-11-21T00:23:14;15.43;;;7.68;;
49310;SDS011;35177;45.900;5.946;2023-11-21T00:25:40;16.80;;;8.25;;
49310;SDS011;35177;45.900;5.946;2023-11-21T00:28:05;15.02;;;7.82;;
49310;SDS011;35177;45.900;5.946;2023-11-21T00:30:31;16.10;;;7.88;;
49310;SDS011;35177;45.900;5.946;2023-11-21T00:32:56;18.15;;;7.85;;
49310;SDS011;35177;45.900;5.946;2023-11-21T00:35:22;15.02;;;7.05;;
49310;SDS011;35177;45.900;5.946;2023-11-21T00:37:47;14.98;;;8.23;;
49310;SDS011;35177;45.900;5.946;2023-11-21T00:40:14;19.88;;;7.85;;
49310;SDS011;35177;45.900;5.946;2023-11-21T00:42:40;18.83;;;8.32;;
49310;SDS011;35177;45.900;5.946;2023-11-21T00:45:06;14.88;;;6.93;;
49310;SDS011;35177;45.900;5.946;2023-11-21T00:47:32;12.43;;;6.60;;
49310;SDS011;35177;45.900;5.946;2023-11-21T00:49:58;18.52;;;8.00;;
49310;SDS011;35177;45.900;5.946;2023-11-21T00:52:24;12.63;;;7.50;;
49310;SDS011;35177;45.900;5.946;2023-11-21T00:54:49;15.07;;;7.43;;
49310;SDS011;35177;45.900;5.946;2023-11-21T00:57:15;12.75;;;6.95;;
49310;SDS011;35177;45.900;5.946;2023-11-21T00:59:40;11.98;;;6.35;;
49310;SDS011;35177;45.900;5.946;2023-11-21T01:02:06;11.00;;;6.57;;
49310;SDS011;35177;45.900;5.946;2023-11-21T01:04:35;20.08;;;6.57;;
49310;SDS011;35177;45.900;5.946;2023-11-21T01:07:00;18.00;;;6.53;;
49310;SDS011;35177;45.900;5.946;2023-11-21T01:09:25;12.25;;;6.35;;
49310;SDS011;35177;45.900;5.946;2023-11-21T01:11:51;14.93;;;6.18;;
49310;SDS011;35177;45.900;5.946;2023-11-21T01:14:17;12.38;;;5.38;;
49310;SDS011;35177;45.900;5.946;2023-11-21T01:16:42;11.98;;;5.95;;
49310;SDS011;35177;45.900;5.946;2023-11-21T01:19:08;10.68;;;5.43;;
49310;SDS011;35177;45.900;5.946;2023-11-21T01:21:34;9.43;;;4.47;;
49310;SDS011;35177;45.900;5.946;2023-11-21T01:23:59;13.27;;;5.90;;
49310;SDS011;35177;45.900;5.946;2023-11-21T01:26:25;70.85;;;7.55;;
49310;SDS011;35177;45.900;5.946;2023-11-21T01:28:50;20.25;;;5.25;;
49310;SDS011;35177;45.900;5.946;2023-11-21T01:31:16;170.45;;;11.30;;
49310;SDS011;35177;45.900;5.946;2023-11-21T01:33:41;124.57;;;10.65;;
49310;SDS011;35177;45.900;5.946;2023-11-21T01:36:06;126.65;;;11.20;;
49310;SDS011;35177;45.900;5.946;2023-11-21T01:38:32;71.60;;;8.65;;
49310;SDS011;35177;45.900;5.946;2023-11-21T01:40:58;107.70;;;8.70;;
49310;SDS011;35177;45.900;5.946;2023-11-21T01:43:25;39.40;;;6.22;;
49310;SDS011;35177;45.900;5.946;2023-11-21T01:45:51;25.80;;;6.88;;
49310;SDS011;35177;45.900;5.946;2023-11-21T01:48:18;17.27;;;7.65;;
49310;SDS011;35177;45.900;5.946;2023-11-21T01:50:44;18.27;;;8.18;;
49310;SDS011;35177;45.900;5.946;2023-11-21T01:53:11;11.20;;;7.00;;
49310;SDS011;35177;45.900;5.946;2023-11-21T01:55:38;13.23;;;7.07;;
49310;SDS011;35177;45.900;5.946;2023-11-21T01:58:05;16.98;;;8.52;;
49310;SDS011;35177;45.900;5.946;2023-11-21T02:00:32;15.65;;;8.63;;
49310;SDS011;35177;45.900;5.946;2023-11-21T02:02:58;18.73;;;8.15;;
49310;SDS011;35177;45.900;5.946;2023-11-21T02:05:24;15.68;;;8.13;;
49310;SDS011;35177;45.900;5.946;2023-11-21T02:07:51;16.70;;;7.13;;
49310;SDS011;35177;45.900;5.946;2023-11-21T02:10:17;13.15;;;6.38;;
49310;SDS011;35177;45.900;5.946;2023-11-21T02:12:47;11.82;;;5.00;;
49310;SDS011;35177;45.900;5.946;2023-11-21T02:15:16;9.32;;;4.30;;
49310;SDS011;35177;45.900;5.946;2023-11-21T02:17:47;10.75;;;4.35;;
49310;SDS011;35177;45.900;5.946;2023-11-21T02:20:16;10.15;;;4.20;;
49310;SDS011;35177;45.900;5.946;2023-11-21T02:22:43;11.18;;;4.25;;
49310;SDS011;35177;45.900;5.946;2023-11-21T02:25:10;10.70;;;4.25;;
49310;SDS011;35177;45.900;5.946;2023-11-21T02:27:36;11.25;;;4.20;;
49310;SDS011;35177;45.900;5.946;2023-11-21T02:30:02;9.85;;;4.43;;
49310;SDS011;35177;45.900;5.946;2023-11-21T02:32:29;12.25;;;5.68;;
49310;SDS011;35177;45.900;5.946;2023-11-21T02:34:56;9.43;;;5.05;;
49310;SDS011;35177;45.900;5.946;2023-11-21T02:37:25;12.68;;;5.22;;
49310;SDS011;35177;45.900;5.946;2023-11-21T02:39:51;11.68;;;5.47;;
49310;SDS011;35177;45.900;5.946;2023-11-21T02:42:17;12.52;;;6.05;;
49310;SDS011;35177;45.900;5.946;2023-11-21T02:44:43;13.77;;;6.72;;
49310;SDS011;35177;45.900;5.946;2023-11-21T02:47:09;15.48;;;5.95;;
49310;SDS011;35177;45.900;5.946;2023-11-21T02:49:34;15.38;;;6.93;;
49310;SDS011;35177;45.900;5.946;2023-11-21T02:52:00;14.30;;;7.13;;
49310;SDS011;35177;45.900;5.946;2023-11-21T02:54:26;12.73;;;7.07;;
49310;SDS011;35177;45.900;5.946;2023-11-21T02:56:52;14.82;;;7.75;;
49310;SDS011;35177;45.900;5.946;2023-11-21T02:59:17;20.20;;;6.78;;
49310;SDS011;35177;45.900;5.946;2023-11-21T03:01:44;13.15;;;6.60;;
49310;SDS011;35177;45.900;5.946;2023-11-21T03:04:10;15.65;;;7.35;;
49310;SDS011;35177;45.900;5.946;2023-11-21T03:06:36;18.55;;;7.85;;
49310;SDS011;35177;45.900;5.946;2023-11-21T03:09:01;24.60;;;10.63;;
49310;SDS011;35177;45.900;5.946;2023-11-21T03:11:27;18.30;;;9.07;;
49310;SDS011;35177;45.900;5.946;2023-11-21T03:13:52;14.10;;;7.68;;
49310;SDS011;35177;45.900;5.946;2023-11-21T03:16:18;21.25;;;8.65;;
49310;SDS011;35177;45.900;5.946;2023-11-21T03:18:44;17.75;;;7.85;;
49310;SDS011;35177;45.900;5.946;2023-11-21T03:21:09;11.90;;;7.20;;
49310;SDS011;35177;45.900;5.946;2023-11-21T03:23:35;18.13;;;7.97;;
49310;SDS011;35177;45.900;5.946;2023-11-21T03:26:01;13.65;;;7.43;;
49310;SDS011;35177;45.900;5.946;2023-11-21T03:28:27;11.48;;;7.55;;
49310;SDS011;35177;45.900;5.946;2023-11-21T03:30:53;13.80;;;7.70;;
49310;SDS011;35177;45.900;5.946;2023-11-21T03:33:19;12.75;;;7.47;;
49310;SDS011;35177;45.900;5.946;2023-11-21T03:35:44;14.50;;;8.63;;
49310;SDS011;35177;45.900;5.946;2023-11-21T03:38:10;83.05;;;11.50;;
49310;SDS011;35177;45.900;5.946;2023-11-21T03:40:35;72.40;;;10.32;;
49310;SDS011;35177;45.900;5.946;2023-11-21T03:43:01;65.55;;;10.52;;
49310;SDS011;35177;45.900;5.946;2023-11-21T03:45:26;34.30;;;9.05;;
49310;SDS011;35177;45.900;5.946;2023-11-21T03:47:52;15.27;;;8.65;;
49310;SDS011;35177;45.900;5.946;2023-11-21T03:50:17;15.68;;;9.07;;
49310;SDS011;35177;45.900;5.946;2023-11-21T03:52:43;17.75;;;9.68;;
49310;SDS011;35177;45.900;5.946;2023-11-21T03:55:08;14.27;;;8.60;;
49310;SDS011;35177;45.900;5.946;2023-11-21T03:57:35;20.33;;;8.77;;
49310;SDS011;35177;45.900;5.946;2023-11-21T04:00:01;15.93;;;9.65;;
49310;SDS011;35177;45.900;5.946;2023-11-21T04:02:29;18.08;;;9.43;;
49310;SDS011;35177;45.900;5.946;2023-11-21T04:04:56;15.05;;;9.02;;
49310;SDS011;35177;45.900;5.946;2023-11-21T04:07:22;15.82;;;9.60;;
49310;SDS011;35177;45.900;5.946;2023-11-21T04:09:47;13.70;;;8.60;;
49310;SDS011;35177;45.900;5.946;2023-11-21T04:12:13;16.05;;;9.07;;
49310;SDS011;35177;45.900;5.946;2023-11-21T04:14:38;16.83;;;9.68;;
49310;SDS011;35177;45.900;5.946;2023-11-21T04:17:03;16.85;;;9.52;;
49310;SDS011;35177;45.900;5.946;2023-11-21T04:19:29;16.85;;;9.13;;
49310;SDS011;35177;45.900;5.946;2023-11-21T04:21:54;18.05;;;9.05;;
49310;SDS011;35177;45.900;5.946;2023-11-21T04:24:20;17.48;;;9.60;;
49310;SDS011;35177;45.900;5.946;2023-11-21T04:26:45;14.75;;;8.95;;
49310;SDS011;35177;45.900;5.946;2023-11-21T04:29:11;17.13;;;9.00;;
49310;SDS011;35177;45.900;5.946;2023-11-21T04:31:37;14.20;;;8.60;;
49310;SDS011;35177;45.900;5.946;2023-11-21T04:34:02;21.33;;;8.68;;
49310;SDS011;35177;45.900;5.946;2023-11-21T04:36:29;14.40;;;8.73;;
49310;SDS011;35177;45.900;5.946;2023-11-21T04:38:56;16.13;;;9.02;;
49310;SDS011;35177;45.900;5.946;2023-11-21T04:41:22;20.23;;;9.60;;
49310;SDS011;35177;45.900;5.946;2023-11-21T04:43:47;17.65;;;9.40;;
49310;SDS011;35177;45.900;5.946;2023-11-21T04:46:12;17.63;;;9.48;;
49310;SDS011;35177;45.900;5.946;2023-11-21T04:48:38;14.88;;;8.02;;
49310;SDS011;35177;45.900;5.946;2023-11-21T04:51:03;11.98;;;7.70;;
49310;SDS011;35177;45.900;5.946;2023-11-21T04:53:29;14.57;;;8.52;;
49310;SDS011;35177;45.900;5.946;2023-11-21T04:55:55;13.82;;;9.43;;
49310;SDS011;35177;45.900;5.946;2023-11-21T04:58:20;23.13;;;11.27;;
49310;SDS011;35177;45.900;5.946;2023-11-21T05:00:46;23.42;;;12.07;;
49310;SDS011;35177;45.900;5.946;2023-11-21T05:03:11;27.80;;;15.85;;
49310;SDS011;35177;45.900;5.946;2023-11-21T05:05:37;32.58;;;14.38;;
49310;SDS011;35177;45.900;5.946;2023-11-21T05:08:02;23.80;;;10.68;;
49310;SDS011;35177;45.900;5.946;2023-11-21T05:10:29;19.90;;;9.05;;
49310;SDS011;35177;45.900;5.946;2023-11-21T05:12:55;16.13;;;8.88;;
49310;SDS011;35177;45.900;5.946;2023-11-21T05:15:20;16.80;;;8.73;;
49310;SDS011;35177;45.900;5.946;2023-11-21T05:17:46;15.95;;;9.02;;
49310;SDS011;35177;45.900;5.946;2023-11-21T05:20:15;15.85;;;8.70;;
49310;SDS011;35177;45.900;5.946;2023-11-21T05:22:47;16.63;;;7.78;;
49310;SDS011;35177;45.900;5.946;2023-11-21T05:25:15;15.80;;;7.78;;
49310;SDS011;35177;45.900;5.946;2023-11-21T05:27:43;17.60;;;8.65;;
49310;SDS011;35177;45.900;5.946;2023-11-21T05:30:13;16.95;;;8.32;;
49310;SDS011;35177;45.900;5.946;2023-11-21T05:32:39;16.52;;;9.05;;
49310;SDS011;35177;45.900;5.946;2023-11-21T05:35:05;14.35;;;7.72;;
49310;SDS011;35177;45.900;5.946;2023-11-21T05:37:43;15.02;;;8.45;;
49310;SDS011;35177;45.900;5.946;2023-11-21T05:40:10;16.23;;;9.20;;
49310;SDS011;35177;45.900;5.946;2023-11-21T05:42:36;16.05;;;8.13;;
49310;SDS011;35177;45.900;5.946;2023-11-21T05:45:03;13.35;;;7.15;;
49310;SDS011;35177;45.900;5.946;2023-11-21T05:47:44;13.48;;;7.60;;
49310;SDS011;35177;45.900;5.946;2023-11-21T05:50:14;13.85;;;7.38;;
49310;SDS011;35177;45.900;5.946;2023-11-21T05:52:41;22.13;;;8.50;;
49310;SDS011;35177;45.900;5.946;2023-11-21T05:55:08;14.70;;;8.18;;
49310;SDS011;35177;45.900;5.946;2023-11-21T05:57:34;18.25;;;9.27;;
49310;SDS011;35177;45.900;5.946;2023-11-21T06:00:06;38.55;;;10.50;;
49310;SDS011;35177;45.900;5.946;2023-11-21T06:02:39;31.02;;;11.18;;
49310;SDS011;35177;45.900;5.946;2023-11-21T06:05:08;29.02;;;11.38;;
49310;SDS011;35177;45.900;5.946;2023-11-21T06:07:34;31.85;;;11.85;;
49310;SDS011;35177;45.900;5.946;2023-11-21T06:10:01;20.02;;;10.65;;
49310;SDS011;35177;45.900;5.946;2023-11-21T06:12:30;31.48;;;11.70;;
49310;SDS011;35177;45.900;5.946;2023-11-21T06:14:56;34.40;;;11.23;;
49310;SDS011;35177;45.900;5.946;2023-11-21T06:17:21;21.63;;;11.32;;
49310;SDS011;35177;45.900;5.946;2023-11-21T06:19:47;23.35;;;11.40;;
49310;SDS011;35177;45.900;5.946;2023-11-21T06:22:12;20.98;;;11.25;;
49310;SDS011;35177;45.900;5.946;2023-11-21T06:24:38;19.55;;;10.70;;
49310;SDS011;35177;45.900;5.946;2023-11-21T06:27:04;22.23;;;11.00;;
49310;SDS011;35177;45.900;5.946;2023-11-21T06:29:30;23.30;;;11.32;;
49310;SDS011;35177;45.900;5.946;2023-11-21T06:31:56;17.58;;;10.07;;
49310;SDS011;35177;45.900;5.946;2023-11-21T06:34:23;24.52;;;11.00;;
49310;SDS011;35177;45.900;5.946;2023-11-21T06:36:48;24.02;;;10.75;;
49310;SDS011;35177;45.900;5.946;2023-11-21T06:39:14;24.85;;;11.65;;
49310;SDS011;35177;45.900;5.946;2023-11-21T06:41:41;28.13;;;13.93;;
49310;SDS011;35177;45.900;5.946;2023-11-21T06:44:08;30.38;;;14.35;;
49310;SDS011;35177;45.900;5.946;2023-11-21T06:46:33;30.83;;;14.68;;
49310;SDS011;35177;45.900;5.946;2023-11-21T06:48:59;32.58;;;16.23;;
49310;SDS011;35177;45.900;5.946;2023-11-21T06:51:24;36.03;;;14.55;;
49310;SDS011;35177;45.900;5.946;2023-11-21T06:53:50;26.20;;;14.88;;
49310;SDS011;35177;45.900;5.946;2023-11-21T06:56:16;29.75;;;14.07;;
49310;SDS011;35177;45.900;5.946;2023-11-21T06:58:42;24.92;;;11.93;;
49310;SDS011;35177;45.900;5.946;2023-11-21T07:01:08;22.08;;;12.48;;
49310;SDS011;35177;45.900;5.946;2023-11-21T07:03:33;29.33;;;11.63;;
49310;SDS011;35177;45.900;5.946;2023-11-21T07:05:58;24.10;;;12.15;;
49310;SDS011;35177;45.900;5.946;2023-11-21T07:08:24;19.20;;;10.48;;
49310;SDS011;35177;45.900;5.946;2023-11-21T07:10:49;16.17;;;9.57;;
49310;SDS011;35177;45.900;5.946;2023-11-21T07:13:15;14.50;;;9.15;;
49310;SDS011;35177;45.900;5.946;2023-11-21T07:15:40;18.48;;;10.20;;
49310;SDS011;35177;45.900;5.946;2023-11-21T07:18:06;18.77;;;10.43;;
49310;SDS011;35177;45.900;5.946;2023-11-21T07:20:32;20.13;;;9.93;;
49310;SDS011;35177;45.900;5.946;2023-11-21T07:22:58;19.05;;;9.60;;
49310;SDS011;35177;45.900;5.946;2023-11-21T07:25:25;20.63;;;10.43;;
49310;SDS011;35177;45.900;5.946;2023-11-21T07:27:51;17.30;;;8.98;;
49310;SDS011;35177;45.900;5.946;2023-11-21T07:30:16;15.43;;;8.73;;
49310;SDS011;35177;45.900;5.946;2023-11-21T07:32:42;17.55;;;9.20;;
49310;SDS011;35177;45.900;5.946;2023-11-21T07:35:09;15.45;;;9.63;;
49310;SDS011;35177;45.900;5.946;2023-11-21T07:37:34;16.13;;;9.15;;
49310;SDS011;35177;45.900;5.946;2023-11-21T07:40:00;18.00;;;9.82;;
49310;SDS011;35177;45.900;5.946;2023-11-21T07:42:25;22.25;;;11.13;;
49310;SDS011;35177;45.900;5.946;2023-11-21T07:44:51;18.98;;;9.90;;
49310;SDS011;35177;45.900;5.946;2023-11-21T07:47:17;20.55;;;11.02;;
49310;SDS011;35177;45.900;5.946;2023-11-21T07:49:43;20.70;;;10.57;;
49310;SDS011;35177;45.900;5.946;2023-11-21T07:52:12;20.23;;;11.30;;
49310;SDS011;35177;45.900;5.946;2023-11-21T07:54:39;19.77;;;10.68;;
49310;SDS011;35177;45.900;5.946;2023-11-21T07:57:05;19.58;;;12.02;;
49310;SDS011;35177;45.900;5.946;2023-11-21T07:59:30;16.08;;;11.52;;
49310;SDS011;35177;45.900;5.946;2023-11-21T08:01:56;20.67;;;12.45;;
49310;SDS011;35177;45.900;5.946;2023-11-21T08:04:21;19.75;;;11.63;;
49310;SDS011;35177;45.900;5.946;2023-11-21T08:06:47;17.67;;;10.98;;
49310;SDS011;35177;45.900;5.946;2023-11-21T08:09:12;18.88;;;10.55;;
49310;SDS011;35177;45.900;5.946;2023-11-21T08:11:38;22.77;;;13.20;;
49310;SDS011;35177;45.900;5.946;2023-11-21T08:14:04;18.38;;;11.65;;
49310;SDS011;35177;45.900;5.946;2023-11-21T08:16:30;22.42;;;12.20;;
49310;SDS011;35177;45.900;5.946;2023-11-21T08:18:55;21.83;;;12.88;;
49310;SDS011;35177;45.900;5.946;2023-11-21T08:21:21;20.63;;;12.93;;
49310;SDS011;35177;45.900;5.946;2023-11-21T08:23:48;23.10;;;12.25;;
49310;SDS011;35177;45.900;5.946;2023-11-21T08:26:18;18.73;;;12.27;;
49310;SDS011;35177;45.900;5.946;2023-11-21T08:28:44;16.73;;;11.32;;
49310;SDS011;35177;45.900;5.946;2023-11-21T08:31:09;17.73;;;12.32;;
49310;SDS011;35177;45.900;5.946;2023-11-21T08:33:35;20.50;;;11.63;;
49310;SDS011;35177;45.900;5.946;2023-11-21T08:36:00;23.45;;;11.85;;
49310;SDS011;35177;45.900;5.946;2023-11-21T08:38:26;18.50;;;11.05;;
49310;SDS011;35177;45.900;5.946;2023-11-21T08:40:53;17.02;;;11.77;;
49310;SDS011;35177;45.900;5.946;2023-11-21T08:43:19;22.10;;;11.15;;
49310;SDS011;35177;45.900;5.946;2023-11-21T08:45:45;17.75;;;10.43;;
49310;SDS011;35177;45.900;5.946;2023-11-21T08:48:10;19.65;;;10.18;;
49310;SDS011;35177;45.900;5.946;2023-11-21T08:50:36;19.45;;;10.20;;
49310;SDS011;35177;45.900;5.946;2023-11-21T08:53:02;16.75;;;10.90;;
49310;SDS011;35177;45.900;5.946;2023-11-21T08:55:27;14.27;;;9.30;;
49310;SDS011;35177;45.900;5.946;2023-11-21T08:57:53;17.02;;;9.05;;
49310;SDS011;35177;45.900;5.946;2023-11-21T09:00:19;14.30;;;9.20;;
49310;SDS011;35177;45.900;5.946;2023-11-21T09:02:44;17.13;;;10.20;;
49310;SDS011;35177;45.900;5.946;2023-11-21T09:05:10;17.33;;;9.57;;
49310;SDS011;35177;45.900;5.946;2023-11-21T09:07:38;15.10;;;9.82;;
49310;SDS011;35177;45.900;5.946;2023-11-21T09:10:11;17.90;;;8.98;;
49310;SDS011;35177;45.900;5.946;2023-11-21T09:12:36;13.90;;;9.90;;
49310;SDS011;35177;45.900;5.946;2023-11-21T09:15:05;17.17;;;10.00;;
49310;SDS011;35177;45.900;5.946;2023-11-21T09:17:32;19.40;;;10.43;;
49310;SDS011;35177;45.900;5.946;2023-11-21T09:19:59;17.63;;;9.77;;
49310;SDS011;35177;45.900;5.946;2023-11-21T09:22:24;15.75;;;9.80;;
49310;SDS011;35177;45.900;5.946;2023-11-21T09:24:50;16.55;;;9.60;;
49310;SDS011;35177;45.900;5.946;2023-11-21T09:27:16;13.82;;;9.70;;
49310;SDS011;35177;45.900;5.946;2023-11-21T09:29:42;17.55;;;10.27;;
49310;SDS011;35177;45.900;5.946;2023-11-21T09:32:08;11.50;;;8.23;;
49310;SDS011;35177;45.900;5.946;2023-11-21T09:34:37;9.93;;;7.28;;
49310;SDS011;35177;45.900;5.946;2023-11-21T09:37:03;13.48;;;7.63;;
49310;SDS011;35177;45.900;5.946;2023-11-21T09:39:30;14.48;;;5.65;;
49310;SDS011;35177;45.900;5.946;2023-11-21T09:42:19;12.60;;;5.97;;
49310;SDS011;35177;45.900;5.946;2023-11-21T09:47:26;11.77;;;7.05;;
49310;SDS011;35177;45.900;5.946;2023-11-21T09:49:53;10.63;;;6.15;;
49310;SDS011;35177;45.900;5.946;2023-11-21T09:52:25;12.32;;;6.50;;
49310;SDS011;35177;45.900;5.946;2023-11-21T09:54:54;11.00;;;5.18;;
49310;SDS011;35177;45.900;5.946;2023-11-21T09:57:23;5.78;;;3.08;;
49310;SDS011;35177;45.900;5.946;2023-11-21T09:59:53;9.07;;;3.28;;
49310;SDS011;35177;45.900;5.946;2023-11-21T10:02:28;7.70;;;3.75;;
49310;SDS011;35177;45.900;5.946;2023-11-21T10:04:57;8.70;;;3.42;;
49310;SDS011;35177;45.900;5.946;2023-11-21T10:07:25;6.72;;;3.00;;
49310;SDS011;35177;45.900;5.946;2023-11-21T10:09:51;6.28;;;3.60;;
49310;SDS011;35177;45.900;5.946;2023-11-21T10:12:18;6.28;;;2.40;;
49310;SDS011;35177;45.900;5.946;2023-11-21T10:14:47;7.25;;;2.15;;
49310;SDS011;35177;45.900;5.946;2023-11-21T10:17:14;5.68;;;2.10;;
49310;SDS011;35177;45.900;5.946;2023-11-21T10:19:43;7.10;;;2.47;;
49310;SDS011;35177;45.900;5.946;2023-11-21T10:22:12;5.75;;;1.95;;
49310;SDS011;35177;45.900;5.946;2023-11-21T10:24:37;6.07;;;2.00;;
49310;SDS011;35177;45.900;5.946;2023-11-21T10:27:04;4.80;;;2.10;;
49310;SDS011;35177;45.900;5.946;2023-11-21T10:29:29;4.63;;;2.50;;
49310;SDS011;35177;45.900;5.946;2023-11-21T10:31:55;6.10;;;2.67;;
49310;SDS011;35177;45.900;5.946;2023-11-21T10:34:23;9.48;;;2.72;;
49310;SDS011;35177;45.900;5.946;2023-11-21T10:36:49;13.63;;;4.10;;
49310;SDS011;35177;45.900;5.946;2023-11-21T10:39:17;8.10;;;3.83;;
49310;SDS011;35177;45.900;5.946;2023-11-21T10:41:47;4.43;;;3.05;;
49310;SDS011;35177;45.900;5.946;2023-11-21T10:44:16;7.60;;;3.38;;
49310;SDS011;35177;45.900;5.946;2023-11-21T10:46:49;10.82;;;2.38;;
49310;SDS011;35177;45.900;5.946;2023-11-21T10:49:18;5.40;;;2.47;;
49310;SDS011;35177;45.900;5.946;2023-11-21T10:51:45;7.35;;;2.92;;
49310;SDS011;35177;45.900;5.946;2023-11-21T10:54:10;7.00;;;2.33;;
49310;SDS011;35177;45.900;5.946;2023-11-21T10:56:38;4.53;;;2.20;;
49310;SDS011;35177;45.900;5.946;2023-11-21T10:59:07;5.30;;;2.22;;
49310;SDS011;35177;45.900;5.946;2023-11-21T11:01:39;6.45;;;2.88;;
49310;SDS011;35177;45.900;5.946;2023-11-21T11:04:09;7.13;;;2.70;;
49310;SDS011;35177;45.900;5.946;2023-11-21T11:06:44;6.53;;;2.50;;
49310;SDS011;35177;45.900;5.946;2023-11-21T11:09:21;7.35;;;3.50;;
49310;SDS011;35177;45.900;5.946;2023-11-21T11:11:47;9.98;;;3.90;;
49310;SDS011;35177;45.900;5.946;2023-11-21T11:14:14;6.43;;;3.30;;
49310;SDS011;35177;45.900;5.946;2023-11-21T11:16:40;7.90;;;3.22;;
49310;SDS011;35177;45.900;5.946;2023-11-21T11:19:10;5.93;;;3.10;;
49310;SDS011;35177;45.900;5.946;2023-11-21T11:21:44;6.20;;;3.22;;
49310;SDS011;35177;45.900;5.946;2023-11-21T11:27:30;9.48;;;2.90;;
49310;SDS011;35177;45.900;5.946;2023-11-21T11:36:33;8.60;;;3.42;;
49310;SDS011;35177;45.900;5.946;2023-11-21T11:39:02;4.97;;;2.67;;
49310;SDS011;35177;45.900;5.946;2023-11-21T11:41:30;7.78;;;2.47;;
49310;SDS011;35177;45.900;5.946;2023-11-21T11:44:02;6.18;;;2.38;;
49310;SDS011;35177;45.900;5.946;2023-11-21T11:46:42;4.40;;;2.40;;
49310;SDS011;35177;45.900;5.946;2023-11-21T11:49:10;5.07;;;2.50;;
49310;SDS011;35177;45.900;5.946;2023-11-21T11:51:36;7.32;;;3.33;;
49310;SDS011;35177;45.900;5.946;2023-11-21T11:54:02;7.05;;;3.20;;
49310;SDS011;35177;45.900;5.946;2023-11-21T11:56:29;6.10;;;2.92;;
49310;SDS011;35177;45.900;5.946;2023-11-21T11:59:00;10.68;;;2.05;;
49310;SDS011;35177;45.900;5.946;2023-11-21T12:01:28;1.85;;;1.02;;
49310;SDS011;35177;45.900;5.946;2023-11-21T12:07:04;2.08;;;1.20;;
49310;SDS011;35177;45.900;5.946;2023-11-21T12:09:30;2.75;;;1.27;;
49310;SDS011;35177;45.900;5.946;2023-11-21T12:11:57;2.88;;;1.30;;
49310;SDS011;35177;45.900;5.946;2023-11-21T12:14:23;2.17;;;1.27;;
49310;SDS011;35177;45.900;5.946;2023-11-21T12:16:49;2.88;;;1.50;;
49310;SDS011;35177;45.900;5.946;2023-11-21T12:19:14;2.17;;;1.25;;
49310;SDS011;35177;45.900;5.946;2023-11-21T12:21:40;1.35;;;1.15;;
49310;SDS011;35177;45.900;5.946;2023-11-21T12:24:06;2.10;;;1.15;;
49310;SDS011;35177;45.900;5.946;2023-11-21T12:26:42;2.63;;;1.45;;
49310;SDS011;35177;45.900;5.946;2023-11-21T12:29:09;1.75;;;1.27;;
49310;SDS011;35177;45.900;5.946;2023-11-21T12:31:35;1.80;;;1.25;;
49310;SDS011;35177;45.900;5.946;2023-11-21T12:34:01;4.13;;;1.42;;
49310;SDS011;35177;45.900;5.946;2023-11-21T12:36:26;3.53;;;1.45;;
49310;SDS011;35177;45.900;5.946;2023-11-21T12:38:54;1.17;;;1.02;;
49310;SDS011;35177;45.900;5.946;2023-11-21T12:41:19;1.10;;;0.80;;
49310;SDS011;35177;45.900;5.946;2023-11-21T12:43:46;1.83;;;0.88;;
49310;SDS011;35177;45.900;5.946;2023-11-21T12:46:12;1.35;;;0.98;;
49310;SDS011;35177;45.900;5.946;2023-11-21T12:48:39;1.02;;;0.70;;
49310;SDS011;35177;45.900;5.946;2023-11-21T12:51:07;0.80;;;0.70;;
49310;SDS011;35177;45.900;5.946;2023-11-21T12:53:34;1.45;;;0.80;;
49310;SDS011;35177;45.900;5.946;2023-11-21T12:56:06;1.00;;;0.80;;
49310;SDS011;35177;45.900;5.946;2023-11-21T12:58:36;0.80;;;0.50;;
49310;SDS011;35177;45.900;5.946;2023-11-21T13:01:02;1.75;;;0.70;;
49310;SDS011;35177;45.900;5.946;2023-11-21T13:03:30;0.85;;;0.60;;
49310;SDS011;35177;45.900;5.946;2023-11-21T13:05:57;0.50;;;0.50;;
49310;SDS011;35177;45.900;5.946;2023-11-21T13:08:24;8.85;;;3.70;;
49310;SDS011;35177;45.900;5.946;2023-11-21T13:10:54;7.55;;;2.28;;
49310;SDS011;35177;45.900;5.946;2023-11-21T13:13:21;2.22;;;0.90;;
49310;SDS011;35177;45.900;5.946;2023-11-21T13:18:30;0.93;;;0.90;;
49310;SDS011;35177;45.900;5.946;2023-11-21T13:20:57;1.70;;;1.05;;
49310;SDS011;35177;45.900;5.946;2023-11-21T13:23:24;1.85;;;1.02;;
49310;SDS011;35177;45.900;5.946;2023-11-21T13:25:51;1.27;;;0.70;;
49310;SDS011;35177;45.900;5.946;2023-11-21T13:28:17;1.25;;;1.15;;
49310;SDS011;35177;45.900;5.946;2023-11-21T13:30:47;1.75;;;1.15;;
49310;SDS011;35177;45.900;5.946;2023-11-21T13:33:13;2.45;;;1.55;;
49310;SDS011;35177;45.900;5.946;2023-11-21T13:35:42;2.50;;;1.58;;
49310;SDS011;35177;45.900;5.946;2023-11-21T13:38:13;2.47;;;1.80;;
49310;SDS011;35177;45.900;5.946;2023-11-21T13:40:48;1.48;;;1.10;;
49310;SDS011;35177;45.900;5.946;2023-11-21T13:43:15;0.98;;;0.63;;
49310;SDS011;35177;45.900;5.946;2023-11-21T13:45:44;1.95;;;0.70;;
49310;SDS011;35177;45.900;5.946;2023-11-21T13:48:11;0.90;;;0.60;;
49310;SDS011;35177;45.900;5.946;2023-11-21T13:50:42;1.63;;;0.98;;
49310;SDS011;35177;45.900;5.946;2023-11-21T13:53:14;1.75;;;0.75;;
49310;SDS011;35177;45.900;5.946;2023-11-21T13:55:46;1.98;;;0.60;;
49310;SDS011;35177;45.900;5.946;2023-11-21T13:58:14;0.70;;;0.70;;
49310;SDS011;35177;45.900;5.946;2023-11-21T14:00:44;0.57;;;0.45;;
49310;SDS011;35177;45.900;5.946;2023-11-21T14:03:11;0.88;;;0.50;;
49310;SDS011;35177;45.900;5.946;2023-11-21T14:05:44;2.17;;;0.80;;
49310;SDS011;35177;45.900;5.946;2023-11-21T14:08:12;1.15;;;0.70;;
49310;SDS011;35177;45.900;5.946;2023-11-21T14:10:41;1.75;;;0.88;;
49310;SDS011;35177;45.900;5.946;2023-11-21T14:13:08;0.95;;;0.77;;
49310;SDS011;35177;45.900;5.946;2023-11-21T14:15:35;0.93;;;0.73;;
49310;SDS011;35177;45.900;5.946;2023-11-21T14:18:08;1.50;;;0.60;;
49310;SDS011;35177;45.900;5.946;2023-11-21T14:20:38;3.88;;;0.98;;
49310;SDS011;35177;45.900;5.946;2023-11-21T14:23:05;0.43;;;0.40;;
49310;SDS011;35177;45.900;5.946;2023-11-21T14:25:32;0.90;;;0.75;;
49310;SDS011;35177;45.900;5.946;2023-11-21T14:27:58;1.65;;;0.38;;
49310;SDS011;35177;45.900;5.946;2023-11-21T14:30:24;2.33;;;0.60;;
49310;SDS011;35177;45.900;5.946;2023-11-21T14:32:51;0.98;;;0.47;;
49310;SDS011;35177;45.900;5.946;2023-11-21T14:35:16;1.83;;;0.70;;
49310;SDS011;35177;45.900;5.946;2023-11-21T14:37:42;1.20;;;0.63;;
49310;SDS011;35177;45.900;5.946;2023-11-21T14:40:08;1.38;;;0.60;;
49310;SDS011;35177;45.900;5.946;2023-11-21T14:42:34;0.90;;;0.60;;
49310;SDS011;35177;45.900;5.946;2023-11-21T14:45:02;0.52;;;0.52;;
49310;SDS011;35177;45.900;5.946;2023-11-21T14:47:31;0.93;;;0.65;;
49310;SDS011;35177;45.900;5.946;2023-11-21T14:49:58;0.95;;;0.70;;
49310;SDS011;35177;45.900;5.946;2023-11-21T14:52:25;0.95;;;0.50;;